Time;durP1;ratioP1;P1;durP2;ratioP2;P2;SDS_P1;SDS_P2;PMS_P1;PMS_P2;Temp;Humidity;BMP_temperature;BMP_pressure;BME280_temperature;BME280_humidity;BME280_pressure;Samples;Min_cycle;Max_cycle;Signal;HPM_P1;HPM_P2
2022/10/09 00:01:24;;;;;;;7.85;3.00;;;10.20;64.00;;;;;;5026707;28;20017;-73
2022/10/09 00:03:51;;;;;;;6.35;2.67;;;10.20;64.10;;;;;;5030296;28;20037;-73
2022/10/09 00:06:24;;;;;;;6.63;2.70;;;10.20;64.10;;;;;;5032995;28;20060;-75
2022/10/09 00:08:51;;;;;;;10.63;2.90;;;10.10;64.00;;;;;;5022826;28;20045;-71
2022/10/09 00:11:28;;;;;;;6.43;2.58;;;10.10;64.00;;;;;;5025897;28;20299;-73
2022/10/09 00:13:55;;;;;;;8.48;2.92;;;10.10;64.10;;;;;;5025932;28;20398;-73
2022/10/09 00:16:22;;;;;;;5.53;2.72;;;10.00;63.80;;;;;;5023647;28;20032;-74
2022/10/09 00:18:48;;;;;;;7.45;2.85;;;10.00;63.90;;;;;;5024136;28;20045;-74
2022/10/09 00:21:19;;;;;;;7.00;2.70;;;10.00;64.00;;;;;;5026771;28;20086;-73
2022/10/09 00:23:46;;;;;;;8.15;2.80;;;9.90;63.90;;;;;;5021811;28;20599;-72
2022/10/09 00:26:12;;;;;;;5.55;2.35;;;9.90;63.90;;;;;;5019338;28;20559;-72
2022/10/09 00:28:39;;;;;;;6.95;2.58;;;9.90;63.90;;;;;;5031219;28;20017;-76
2022/10/09 00:31:06;;;;;;;5.57;2.83;;;9.80;63.80;;;;;;5034805;28;20095;-74
2022/10/09 00:33:33;;;;;;;5.03;2.75;;;9.80;63.90;;;;;;5020147;28;20079;-74
2022/10/09 00:36:05;;;;;;;8.02;3.17;;;9.80;64.00;;;;;;5016885;28;20484;-72
2022/10/09 00:38:32;;;;;;;6.75;2.22;;;9.70;63.80;;;;;;5025106;28;20041;-73
2022/10/09 00:40:58;;;;;;;7.57;2.67;;;9.70;63.90;;;;;;5025001;28;20501;-74
2022/10/09 00:43:45;;;;;;;4.75;2.42;;;9.70;63.90;;;;;;5016886;28;20178;-72
2022/10/09 00:46:34;;;;;;;9.10;3.22;;;9.70;64.00;;;;;;5020397;28;20029;-75
2022/10/09 00:49:02;;;;;;;5.47;2.58;;;9.60;63.90;;;;;;5024884;28;20459;-75
2022/10/09 00:51:30;;;;;;;7.03;2.55;;;9.60;63.80;;;;;;5020743;28;20408;-75
2022/10/09 00:53:56;;;;;;;5.95;2.50;;;9.60;63.80;;;;;;5024762;28;20025;-75
2022/10/09 00:56:23;;;;;;;5.72;2.50;;;9.60;63.90;;;;;;5022321;28;20033;-74
2022/10/09 00:58:53;;;;;;;8.55;2.10;;;9.60;63.90;;;;;;5003596;28;20350;-74
2022/10/09 01:01:19;;;;;;;9.57;3.53;;;9.50;63.70;;;;;;5027137;28;20103;-73
2022/10/09 01:03:46;;;;;;;6.30;2.35;;;9.50;63.80;;;;;;5014470;28;20112;-72
2022/10/09 01:06:17;;;;;;;7.10;2.63;;;9.50;63.80;;;;;;5034059;28;20149;-72
2022/10/09 01:08:55;;;;;;;8.18;3.38;;;9.40;63.70;;;;;;5028721;28;20025;-72
2022/10/09 01:11:49;;;;;;;8.25;3.03;;;9.40;63.70;;;;;;5031979;28;20080;-73
2022/10/09 01:14:18;;;;;;;;;;;9.40;63.80;;;;;;5022622;28;20048;-73
2022/10/09 01:16:51;;;;;;;4.07;2.03;;;9.40;63.80;;;;;;5021792;28;19928;-74
2022/10/09 01:19:45;;;;;;;5.30;2.22;;;9.40;63.60;;;;;;5027932;28;20153;-74
2022/10/09 01:22:21;;;;;;;6.55;2.58;;;9.40;63.80;;;;;;5015431;28;20037;-73
2022/10/09 01:24:54;;;;;;;4.60;2.03;;;9.40;63.80;;;;;;5028961;28;20029;-73
2022/10/09 01:27:25;;;;;;;6.53;1.85;;;9.30;63.70;;;;;;5036844;28;20044;-74
2022/10/09 01:29:55;;;;;;;4.38;1.88;;;9.40;63.90;;;;;;5030620;28;20522;-75
2022/10/09 01:32:32;;;;;;;6.57;2.40;;;9.30;63.80;;;;;;5037125;28;20032;-71
2022/10/09 01:34:59;;;;;;;4.40;1.90;;;9.30;63.90;;;;;;5018647;28;20029;-73
2022/10/09 01:37:28;;;;;;;7.50;2.53;;;9.30;63.90;;;;;;5024207;28;20447;-71
2022/10/09 01:39:55;;;;;;;7.13;2.15;;;9.30;64.50;;;;;;5035178;28;20036;-72
2022/10/09 01:42:23;;;;;;;5.90;1.75;;;9.30;64.00;;;;;;5024235;28;20024;-73
2022/10/09 01:44:49;;;;;;;6.93;1.80;;;9.30;64.10;;;;;;5028291;28;20032;-73
2022/10/09 01:47:17;;;;;;;6.82;2.08;;;9.30;64.10;;;;;;5021088;22;20241;-75
2022/10/09 01:50:06;;;;;;;4.03;2.30;;;9.30;64.20;;;;;;4975551;28;20605;-75
2022/10/09 01:52:42;;;;;;;5.72;1.98;;;9.30;64.30;;;;;;4986682;28;20056;-74
2022/10/09 01:55:32;;;;;;;3.83;2.10;;;9.30;64.20;;;;;;4990776;28;20041;-75
2022/10/09 01:58:31;;;;;;;5.28;2.38;;;9.30;64.30;;;;;;4988433;28;20034;-74
2022/10/09 02:01:06;;;;;;;6.03;2.63;;;9.30;64.30;;;;;;4976488;28;20042;-74
2022/10/09 02:03:34;;;;;;;6.95;2.90;;;9.30;64.20;;;;;;4985951;28;20494;-74
2022/10/09 02:06:06;;;;;;;6.57;2.05;;;9.30;64.20;;;;;;4996849;28;20490;-74
2022/10/09 02:08:35;;;;;;;3.97;2.20;;;9.30;64.30;;;;;;4990570;28;20162;-74
2022/10/09 02:11:02;;;;;;;4.25;2.15;;;9.30;64.30;;;;;;4987242;28;20023;-74
2022/10/09 02:13:31;;;;;;;3.97;1.92;;;9.30;64.30;;;;;;4990106;28;20029;-75
2022/10/09 02:16:17;;;;;;;4.90;2.50;;;9.30;64.30;;;;;;4996862;28;20120;-74
2022/10/09 02:18:47;;;;;;;6.53;2.20;;;9.30;64.40;;;;;;4986897;28;20026;-74
2022/10/09 02:21:21;;;;;;;5.05;2.05;;;9.30;64.40;;;;;;4986857;28;20103;-75
2022/10/09 02:23:48;;;;;;;5.35;2.60;;;9.20;64.30;;;;;;4985154;28;20096;-75
2022/10/09 02:26:14;;;;;;;4.60;2.13;;;9.20;64.30;;;;;;4992013;28;20030;-74
2022/10/09 02:28:40;;;;;;;5.53;1.92;;;9.20;64.30;;;;;;4992927;28;20034;-75
2022/10/09 02:31:23;;;;;;;4.20;2.10;;;9.20;64.40;;;;;;4999223;28;20033;-75
2022/10/09 02:33:58;;;;;;;8.10;2.63;;;9.10;64.30;;;;;;5001950;28;20038;-73
2022/10/09 02:36:25;;;;;;;5.35;2.75;;;9.10;64.30;;;;;;4992866;28;20505;-74
2022/10/09 02:38:51;;;;;;;7.40;2.40;;;9.10;64.40;;;;;;4994101;28;20081;-77
2022/10/09 02:41:17;;;;;;;5.72;2.45;;;9.10;64.40;;;;;;4994206;28;20422;-74
2022/10/09 02:43:43;;;;;;;5.97;2.22;;;9.10;64.50;;;;;;4990769;28;20064;-75
2022/10/09 02:46:09;;;;;;;5.38;2.03;;;9.10;64.50;;;;;;4992133;28;20038;-76
2022/10/09 02:48:35;;;;;;;4.53;2.40;;;9.10;64.50;;;;;;4991983;28;20362;-75
2022/10/09 02:51:01;;;;;;;4.22;2.00;;;9.10;64.50;;;;;;4988921;28;20027;-76
2022/10/09 02:53:27;;;;;;;6.88;2.70;;;9.10;64.60;;;;;;4991789;28;20034;-76
2022/10/09 02:55:53;;;;;;;4.90;1.90;;;9.10;64.50;;;;;;4995015;28;20041;-76
2022/10/09 02:58:19;;;;;;;5.18;1.55;;;9.10;64.60;;;;;;4990615;28;20034;-75
2022/10/09 03:00:52;;;;;;;5.05;2.20;;;9.10;64.60;;;;;;4993630;28;20027;-75
2022/10/09 03:03:25;;;;;;;9.13;2.70;;;9.10;64.60;;;;;;4990652;28;20026;-75
2022/10/09 03:06:02;;;;;;;5.40;2.75;;;9.10;64.60;;;;;;4992472;28;20393;-76
2022/10/09 03:08:30;;;;;;;6.55;2.17;;;9.10;64.70;;;;;;4987177;28;20030;-75
2022/10/09 03:10:57;;;;;;;4.63;3.00;;;9.10;64.60;;;;;;4992758;28;20037;-75
2022/10/09 03:13:23;;;;;;;2.67;1.55;;;9.10;64.60;;;;;;4986594;28;20030;-75
2022/10/09 03:15:50;;;;;;;6.28;2.25;;;9.10;64.70;;;;;;4993693;28;20034;-74
2022/10/09 03:18:16;;;;;;;4.88;2.05;;;9.10;64.70;;;;;;4990872;28;20042;-75
2022/10/09 03:20:42;;;;;;;6.28;2.33;;;9.10;64.80;;;;;;4986097;28;20049;-75
2022/10/09 03:23:08;;;;;;;9.40;2.58;;;9.10;64.80;;;;;;4989107;28;20026;-74
2022/10/09 03:25:36;;;;;;;5.65;1.92;;;9.10;64.80;;;;;;4993891;28;20018;-75
2022/10/09 03:28:03;;;;;;;6.93;2.17;;;9.10;64.80;;;;;;4999487;28;20032;-74
2022/10/09 03:30:32;;;;;;;5.20;2.28;;;9.00;64.70;;;;;;4991947;28;20137;-75
2022/10/09 03:32:57;;;;;;;5.70;2.08;;;9.00;64.70;;;;;;4994835;28;20070;-74
2022/10/09 03:35:23;;;;;;;7.57;2.08;;;9.00;64.70;;;;;;4992348;28;20030;-75
2022/10/09 03:37:49;;;;;;;5.68;2.03;;;9.00;64.80;;;;;;4993124;28;20039;-74
2022/10/09 03:40:15;;;;;;;6.15;2.30;;;9.00;64.80;;;;;;4982853;28;20034;-75
2022/10/09 03:42:43;;;;;;;5.30;2.20;;;9.00;64.80;;;;;;4992161;28;20018;-74
2022/10/09 03:45:09;;;;;;;6.93;2.25;;;9.00;64.90;;;;;;4996617;28;20121;-73
2022/10/09 03:47:36;;;;;;;5.03;1.85;;;9.00;64.90;;;;;;4988284;28;20046;-75
2022/10/09 03:50:02;;;;;;;4.20;2.13;;;9.00;65.00;;;;;;4989578;28;20088;-75
2022/10/09 03:52:28;;;;;;;3.00;1.67;;;9.00;65.00;;;;;;4987794;28;20494;-75
2022/10/09 03:54:54;;;;;;;4.57;1.70;;;9.00;65.00;;;;;;4990965;28;20044;-75
2022/10/09 03:57:20;;;;;;;5.72;2.38;;;9.00;65.00;;;;;;4989707;28;20042;-74
2022/10/09 03:59:46;;;;;;;3.53;1.73;;;9.00;65.00;;;;;;4991927;28;20026;-74
2022/10/09 04:02:12;;;;;;;6.35;2.05;;;8.90;64.80;;;;;;4990319;28;20038;-75
2022/10/09 04:04:38;;;;;;;8.35;2.40;;;9.00;65.00;;;;;;4985958;28;20072;-76
2022/10/09 04:07:05;;;;;;;6.70;2.10;;;9.00;65.00;;;;;;4992407;28;20062;-75
2022/10/09 04:09:32;;;;;;;4.88;1.92;;;9.00;65.00;;;;;;4992510;28;20607;-74
2022/10/09 04:11:58;;;;;;;5.20;2.63;;;9.00;65.00;;;;;;4990417;28;20027;-77
2022/10/09 04:14:25;;;;;;;6.20;2.40;;;9.00;65.00;;;;;;4993282;28;20034;-76
2022/10/09 04:16:51;;;;;;;4.30;2.25;;;9.00;65.50;;;;;;4993177;28;20136;-75
2022/10/09 04:19:17;;;;;;;5.32;2.35;;;9.00;65.00;;;;;;4992159;28;20054;-75
2022/10/09 04:21:44;;;;;;;7.18;2.05;;;9.00;65.00;;;;;;4991414;28;20094;-75
2022/10/09 04:24:10;;;;;;;5.40;2.05;;;9.00;65.00;;;;;;4993446;28;20041;-75
2022/10/09 04:26:38;;;;;;;4.70;1.90;;;9.00;65.00;;;;;;4993060;28;20029;-75
2022/10/09 04:29:04;;;;;;;3.47;1.85;;;8.90;64.90;;;;;;4993720;28;20030;-75
2022/10/09 04:31:31;;;;;;;7.10;2.13;;;8.90;64.90;;;;;;4993247;28;20033;-73
2022/10/09 04:33:57;;;;;;;10.85;2.00;;;8.90;64.90;;;;;;4984239;28;20038;-76
2022/10/09 04:36:26;;;;;;;3.40;1.58;;;9.00;65.10;;;;;;4994039;28;20022;-72
2022/10/09 04:38:53;;;;;;;4.13;1.90;;;9.00;65.10;;;;;;4992805;28;20060;-73
2022/10/09 04:41:22;;;;;;;6.72;2.30;;;9.00;65.10;;;;;;4994903;28;20030;-74
2022/10/09 04:43:52;;;;;;;5.93;2.50;;;8.90;64.90;;;;;;4992012;28;20027;-74
2022/10/09 04:46:22;;;;;;;6.38;2.30;;;9.00;65.10;;;;;;4992975;28;20044;-73
2022/10/09 04:48:51;;;;;;;8.00;2.40;;;9.00;65.10;;;;;;5000616;28;20044;-73
2022/10/09 04:51:17;;;;;;;6.93;3.85;;;8.90;65.00;;;;;;4991001;28;20034;-74
2022/10/09 04:53:53;;;;;;;5.18;2.35;;;9.00;65.10;;;;;;4989988;28;20315;-74
2022/10/09 04:56:21;;;;;;;7.65;2.60;;;9.00;65.20;;;;;;4971757;28;20031;-74
2022/10/09 04:58:48;;;;;;;5.30;2.03;;;9.00;65.10;;;;;;4994264;28;20474;-74
2022/10/09 05:01:21;;;;;;;5.15;1.90;;;9.00;65.10;;;;;;4995769;28;20030;-73
2022/10/09 05:03:47;;;;;;;;;;;9.00;65.20;;;;;;4995200;28;20033;-75
2022/10/09 05:06:14;;;;;;;7.28;1.98;;;9.00;65.10;;;;;;4982495;28;20116;-74
2022/10/09 05:08:41;;;;;;;4.95;2.00;;;9.00;65.00;;;;;;4996033;28;20052;-75
2022/10/09 05:11:12;;;;;;;6.60;2.42;;;9.00;65.00;;;;;;4989550;28;20038;-74
2022/10/09 05:13:40;;;;;;;7.63;2.45;;;9.00;65.00;;;;;;4988002;28;20081;-74
2022/10/09 05:16:09;;;;;;;5.68;1.85;;;9.10;65.20;;;;;;4990142;28;20026;-74
2022/10/09 05:18:41;;;;;;;4.80;1.60;;;9.10;65.20;;;;;;4994377;28;20035;-75
2022/10/09 05:21:09;;;;;;;6.38;2.00;;;9.10;65.20;;;;;;4984916;28;20722;-74
2022/10/09 05:23:34;;;;;;;8.50;2.17;;;9.10;65.20;;;;;;4993689;28;20120;-74
2022/10/09 05:26:07;;;;;;;3.70;1.90;;;9.10;65.20;;;;;;4991754;28;20023;-75
2022/10/09 05:28:35;;;;;;;3.58;2.03;;;9.10;65.20;;;;;;4985921;28;20076;-74
2022/10/09 05:31:03;;;;;;;5.20;2.28;;;9.20;65.40;;;;;;4987048;28;20058;-74
2022/10/09 05:33:29;;;;;;;4.93;1.90;;;9.20;65.40;;;;;;4985265;28;20104;-76
2022/10/09 05:35:58;;;;;;;6.20;2.75;;;9.20;65.40;;;;;;4986048;28;20037;-75
2022/10/09 05:38:25;;;;;;;5.95;2.10;;;9.20;65.40;;;;;;4987602;28;20042;-75
2022/10/09 05:41:03;;;;;;;9.13;2.60;;;9.30;65.60;;;;;;4987819;28;20030;-75
2022/10/09 05:43:32;;;;;;;8.60;1.95;;;9.30;65.60;;;;;;4988134;28;20464;-75
2022/10/09 05:46:09;;;;;;;6.30;2.85;;;9.30;65.60;;;;;;4984358;28;20030;-80
2022/10/09 05:48:37;;;;;;;5.53;1.98;;;9.40;65.70;;;;;;4984328;28;20387;-77
2022/10/09 05:51:30;;;;;;;5.70;2.05;;;9.40;65.80;;;;;;4980610;28;20034;-78
2022/10/09 05:53:58;;;;;;;6.95;2.20;;;9.40;65.70;;;;;;4982315;28;20045;-75
2022/10/09 05:56:29;;;;;;;4.85;1.80;;;9.50;65.80;;;;;;4985079;28;20266;-76
2022/10/09 05:59:20;;;;;;;4.30;1.77;;;9.50;65.80;;;;;;4988427;28;20050;-75
2022/10/09 06:01:48;;;;;;;4.60;2.10;;;9.50;65.80;;;;;;4986148;28;20442;-76
2022/10/09 06:04:17;;;;;;;5.10;1.77;;;9.60;65.90;;;;;;4984565;28;20080;-74
2022/10/09 06:06:45;;;;;;;3.25;1.70;;;9.60;65.90;;;;;;4985265;28;20042;-77
2022/10/09 06:09:13;;;;;;;5.88;2.05;;;9.60;65.90;;;;;;4982861;28;20445;-76
2022/10/09 06:11:39;;;;;;;4.55;1.83;;;9.60;65.90;;;;;;4982408;28;20053;-76
2022/10/09 06:14:10;;;;;;;3.40;1.30;;;9.70;66.10;;;;;;4976771;28;20261;-75
2022/10/09 06:16:40;;;;;;;5.22;1.60;;;9.70;66.10;;;;;;4986879;28;20026;-74
2022/10/09 06:19:08;;;;;;;5.63;1.85;;;9.70;66.10;;;;;;4999943;28;20533;-74
2022/10/09 06:21:35;;;;;;;6.25;2.17;;;9.70;66.20;;;;;;4984447;28;20043;-76
2022/10/09 06:24:03;;;;;;;7.85;2.80;;;9.70;66.10;;;;;;4993539;28;20792;-76
2022/10/09 06:26:31;;;;;;;3.45;1.52;;;9.80;66.40;;;;;;4992666;28;20106;-75
2022/10/09 06:28:59;;;;;;;4.18;1.80;;;9.80;66.40;;;;;;4974451;28;20038;-76
2022/10/09 06:31:30;;;;;;;3.55;1.55;;;9.80;66.40;;;;;;4989520;28;20049;-75
2022/10/09 06:34:02;;;;;;;5.57;1.77;;;9.80;66.50;;;;;;4962958;28;20114;-76
2022/10/09 06:36:30;;;;;;;4.88;1.92;;;9.70;66.60;;;;;;4985631;28;20034;-81
2022/10/09 06:38:59;;;;;;;5.70;1.90;;;9.80;66.90;;;;;;4993785;28;20425;-76
2022/10/09 06:41:28;;;;;;;5.57;1.95;;;9.80;66.90;;;;;;4984977;28;20041;-76
2022/10/09 06:43:56;;;;;;;5.38;1.95;;;9.80;67.00;;;;;;4986028;28;20030;-75
2022/10/09 06:46:25;;;;;;;4.10;1.40;;;9.80;67.00;;;;;;4979935;28;20092;-74
2022/10/09 06:48:51;;;;;;;3.75;1.65;;;9.80;67.00;;;;;;4975049;28;20033;-75
2022/10/09 06:51:19;;;;;;;3.50;1.83;;;9.90;67.20;;;;;;4983108;28;20026;-79
2022/10/09 06:53:57;;;;;;;4.97;1.77;;;9.90;67.20;;;;;;4982780;28;20031;-75
2022/10/09 06:56:24;;;;;;;4.93;1.80;;;9.90;67.20;;;;;;4980165;28;20434;-74
2022/10/09 06:58:50;;;;;;;4.95;1.45;;;9.90;67.10;;;;;;4982850;28;20060;-77
2022/10/09 07:01:20;;;;;;;7.82;1.67;;;10.00;67.30;;;;;;4982935;28;20022;-74
2022/10/09 07:03:51;;;;;;;3.70;1.42;;;10.00;67.20;;;;;;4979768;28;20114;-75
2022/10/09 07:06:23;;;;;;;4.35;1.23;;;10.00;67.20;;;;;;4983988;28;20038;-74
2022/10/09 07:09:00;;;;;;;3.78;1.83;;;10.00;67.20;;;;;;4984804;28;20328;-74
2022/10/09 07:11:31;;;;;;;4.35;1.67;;;10.10;67.40;;;;;;4986387;28;20045;-76
2022/10/09 07:13:59;;;;;;;5.03;1.42;;;10.10;67.30;;;;;;4982828;28;20035;-75
2022/10/09 07:16:30;;;;;;;5.88;1.88;;;10.10;67.20;;;;;;4987631;28;20165;-75
2022/10/09 07:18:56;;;;;;;5.13;1.75;;;10.20;67.40;;;;;;4981737;28;20052;-75
2022/10/09 07:21:23;;;;;;;7.53;1.98;;;10.20;67.30;;;;;;4988786;28;20025;-74
2022/10/09 07:23:49;;;;;;;6.20;1.52;;;10.20;67.30;;;;;;4987471;28;20038;-75
2022/10/09 07:26:18;;;;;;;4.05;2.15;;;10.30;67.40;;;;;;4984681;28;20041;-75
2022/10/09 07:28:44;;;;;;;2.88;1.30;;;10.30;67.40;;;;;;4987621;28;20045;-76
2022/10/09 07:31:11;;;;;;;4.60;1.95;;;10.40;67.50;;;;;;4990006;28;20041;-75
2022/10/09 07:33:37;;;;;;;5.00;1.75;;;10.40;67.50;;;;;;4987356;28;20608;-75
2022/10/09 07:36:05;;;;;;;4.95;2.05;;;10.50;67.60;;;;;;4987928;28;20041;-75
2022/10/09 07:38:32;;;;;;;5.38;2.28;;;10.50;67.50;;;;;;4971400;28;20046;-74
2022/10/09 07:41:03;;;;;;;6.00;1.67;;;10.60;67.60;;;;;;4987784;28;20525;-74
2022/10/09 07:43:29;;;;;;;5.65;1.90;;;10.60;67.50;;;;;;4982743;28;20033;-74
2022/10/09 07:45:58;;;;;;;4.53;2.42;;;10.70;67.60;;;;;;4960569;28;20026;-74
2022/10/09 07:48:24;;;;;;;7.80;1.67;;;10.70;68.00;;;;;;4983867;28;20041;-75
2022/10/09 07:50:50;;;;;;;7.20;1.70;;;10.80;67.60;;;;;;4968703;28;20027;-75
2022/10/09 07:53:16;;;;;;;6.05;1.67;;;10.80;67.60;;;;;;4986114;28;20030;-74
2022/10/09 07:55:47;;;;;;;6.88;1.73;;;10.80;67.60;;;;;;4987182;28;20069;-74
2022/10/09 07:58:15;;;;;;;3.95;1.30;;;10.90;67.70;;;;;;4987244;28;20034;-73
2022/10/09 08:00:42;;;;;;;5.00;2.58;;;10.90;67.60;;;;;;4969100;28;20033;-75
2022/10/09 08:03:09;;;;;;;3.35;1.65;;;10.90;67.60;;;;;;4987849;28;20037;-73
2022/10/09 08:05:35;;;;;;;6.40;2.35;;;11.00;68.30;;;;;;4985854;28;20034;-78
2022/10/09 08:08:03;;;;;;;7.50;2.08;;;11.00;67.80;;;;;;4976565;28;20629;-81
2022/10/09 08:10:31;;;;;;;5.70;2.13;;;11.10;67.90;;;;;;4995680;28;20030;-79
2022/10/09 08:12:59;;;;;;;6.35;2.35;;;11.20;68.00;;;;;;4999945;28;20392;-81
2022/10/09 08:15:25;;;;;;;5.18;1.70;;;11.20;67.90;;;;;;4996003;28;20050;-83
2022/10/09 08:17:53;;;;;;;4.47;1.90;;;11.30;68.00;;;;;;5015735;28;20053;-81
2022/10/09 08:20:23;;;;;;;5.68;1.75;;;11.40;68.10;;;;;;5013857;28;20049;-81
2022/10/09 08:22:54;;;;;;;5.30;1.92;;;11.50;68.20;;;;;;5025858;28;20050;-86
2022/10/09 08:25:21;;;;;;;3.55;1.70;;;11.60;68.30;;;;;;4995470;28;20433;-80
2022/10/09 08:27:47;;;;;;;3.58;1.52;;;11.70;68.30;;;;;;4992267;28;20054;-76
2022/10/09 08:30:13;;;;;;;9.60;2.75;;;11.80;68.30;;;;;;4997458;28;20049;-74
2022/10/09 08:32:40;;;;;;;6.60;2.10;;;12.00;68.50;;;;;;4987991;28;20049;-75
2022/10/09 08:35:06;;;;;;;5.28;1.73;;;12.20;68.70;;;;;;4984150;28;20034;-73
2022/10/09 08:37:32;;;;;;;5.35;1.90;;;12.30;68.70;;;;;;4983479;28;20034;-75
2022/10/09 08:39:59;;;;;;;3.88;1.92;;;12.50;68.90;;;;;;4980183;28;20311;-74
2022/10/09 08:42:31;;;;;;;4.18;1.80;;;12.60;68.90;;;;;;4984987;28;20026;-74
2022/10/09 08:44:57;;;;;;;6.03;1.80;;;12.70;69.40;;;;;;4987325;28;20293;-73
2022/10/09 08:47:35;;;;;;;4.88;1.70;;;12.90;69.00;;;;;;4978741;28;20312;-75
2022/10/09 08:50:07;;;;;;;7.82;2.50;;;13.10;69.20;;;;;;4986802;28;20038;-76
2022/10/09 08:52:58;;;;;;;5.28;2.67;;;13.20;69.20;;;;;;4986714;28;20470;-78
2022/10/09 08:55:33;;;;;;;9.15;2.35;;;13.50;70.00;;;;;;4986546;28;20033;-78
2022/10/09 08:58:03;;;;;;;6.57;2.20;;;13.80;70.10;;;;;;4985781;28;20954;-78
2022/10/09 09:00:35;;;;;;;5.65;1.45;;;14.10;70.20;;;;;;4951358;28;20030;-78
2022/10/09 09:03:23;;;;;;;7.07;2.70;;;14.50;70.30;;;;;;4981546;28;20046;-78
2022/10/09 09:05:51;;;;;;;5.30;1.67;;;14.80;70.20;;;;;;5000978;28;20038;-78
2022/10/09 09:08:43;;;;;;;4.20;1.60;;;15.10;70.20;;;;;;4983872;28;20015;-79
2022/10/09 09:11:38;;;;;;;5.60;2.65;;;15.50;70.20;;;;;;4987241;28;20042;-78
2022/10/09 09:14:18;;;;;;;4.20;1.58;;;15.70;69.70;;;;;;4979662;28;20033;-78
2022/10/09 09:17:07;;;;;;;5.65;1.70;;;16.00;69.60;;;;;;4990015;28;20566;-79
2022/10/09 09:19:54;;;;;;;4.45;1.98;;;16.20;69.50;;;;;;4989788;28;20042;-79
2022/10/09 09:22:22;;;;;;;4.97;1.63;;;16.40;69.50;;;;;;4977181;28;20045;-78
2022/10/09 09:24:59;;;;;;;5.65;1.85;;;16.40;69.20;;;;;;4989976;28;20050;-79
2022/10/09 09:27:32;;;;;;;3.17;1.65;;;16.60;69.20;;;;;;4983372;28;20030;-79
2022/10/09 09:30:25;;;;;;;4.85;1.90;;;16.70;69.10;;;;;;4990503;28;20259;-78
2022/10/09 09:33:10;;;;;;;7.17;3.27;;;16.90;69.00;;;;;;4982206;28;20038;-78
2022/10/09 09:36:10;;;;;;;5.38;1.70;;;17.10;68.80;;;;;;4988063;28;20288;-80
2022/10/09 09:38:37;;;;;;;4.72;1.30;;;17.40;68.70;;;;;;5003907;28;20048;-78
2022/10/09 09:41:04;;;;;;;5.47;1.98;;;17.60;68.60;;;;;;4988629;28;20027;-83
2022/10/09 09:43:30;;;;;;;7.38;1.73;;;17.80;68.30;;;;;;4987376;28;20049;-78
2022/10/09 09:45:58;;;;;;;4.57;1.83;;;18.00;68.10;;;;;;5008275;28;20030;-78
2022/10/09 09:48:39;;;;;;;5.90;1.55;;;18.20;67.90;;;;;;4988482;28;20088;-79
2022/10/09 09:51:26;;;;;;;5.37;1.67;;;18.40;67.50;;;;;;4980868;28;20135;-78
2022/10/09 09:53:55;;;;;;;4.18;1.25;;;18.50;67.30;;;;;;4987823;28;20050;-84
2022/10/09 09:56:39;;;;;;;4.00;1.88;;;18.60;67.00;;;;;;4983885;28;20023;-81
2022/10/09 09:59:06;;;;;;;10.25;2.13;;;18.60;66.70;;;;;;4981848;28;20044;-77
2022/10/09 10:01:34;;;;;;;7.68;1.95;;;18.70;66.80;;;;;;4984382;28;20041;-79
2022/10/09 10:04:02;;;;;;;2.83;1.33;;;18.70;67.00;;;;;;4980475;28;20543;-76
2022/10/09 10:06:42;;;;;;;6.63;2.53;;;18.80;66.40;;;;;;4977925;28;20038;-75
2022/10/09 10:09:16;;;;;;;6.93;1.40;;;18.80;65.90;;;;;;4983720;28;20113;-75
2022/10/09 10:11:46;;;;;;;3.25;1.65;;;18.90;65.90;;;;;;4973475;28;20043;-76
2022/10/09 10:14:14;;;;;;;6.53;1.65;;;19.00;65.90;;;;;;4994535;28;20409;-76
2022/10/09 10:16:41;;;;;;;7.75;2.17;;;19.00;65.70;;;;;;4987035;28;20027;-83
2022/10/09 10:19:23;;;;;;;5.47;2.15;;;19.10;65.60;;;;;;4982307;28;20395;-74
2022/10/09 10:22:04;;;;;;;6.57;1.45;;;19.20;65.40;;;;;;4968573;28;20026;-77
2022/10/09 10:24:43;;;;;;;5.93;1.40;;;19.30;65.30;;;;;;4980177;28;20033;-81
2022/10/09 10:27:28;;;;;;;7.07;1.20;;;19.40;65.10;;;;;;4981063;28;20026;-84
2022/10/09 10:29:59;;;;;;;5.28;1.70;;;19.50;65.00;;;;;;4984798;28;20433;-78
2022/10/09 10:32:40;;;;;;;7.35;1.35;;;19.50;65.00;;;;;;4987494;28;20027;-75
2022/10/09 10:35:37;;;;;;;2.70;1.15;;;19.60;64.90;;;;;;4978483;28;20049;-78
2022/10/09 10:38:09;;;;;;;3.33;1.30;;;19.80;64.80;;;;;;4975659;28;20038;-78
2022/10/09 10:40:42;;;;;;;4.30;2.10;;;19.90;64.70;;;;;;4972177;28;20494;-78
2022/10/09 10:43:09;;;;;;;5.28;1.58;;;20.00;64.30;;;;;;4989448;28;20049;-78
2022/10/09 10:45:43;;;;;;;3.55;1.80;;;20.10;64.20;;;;;;4996635;28;20031;-82
2022/10/09 10:48:28;;;;;;;6.82;2.53;;;20.30;64.00;;;;;;4994177;28;20050;-78
2022/10/09 10:51:03;;;;;;;4.30;1.70;;;20.40;63.50;;;;;;4984501;28;20490;-81
2022/10/09 10:54:02;;;;;;;6.35;2.28;;;20.60;63.40;;;;;;4988127;28;20049;-78
2022/10/09 10:56:39;;;;;;;7.03;1.48;;;20.70;62.90;;;;;;4971709;28;20554;-78
2022/10/09 10:59:17;;;;;;;3.65;1.30;;;20.70;62.80;;;;;;4988347;28;20046;-82
2022/10/09 11:01:51;;;;;;;5.90;2.03;;;20.80;62.80;;;;;;4986328;28;20569;-83
2022/10/09 11:04:33;;;;;;;4.30;1.75;;;20.90;62.60;;;;;;4969908;28;20157;-77
2022/10/09 11:07:32;;;;;;;6.53;1.60;;;21.00;62.40;;;;;;4989634;28;20034;-78
2022/10/09 11:10:13;;;;;;;4.50;1.63;;;21.10;62.10;;;;;;4996374;28;20026;-81
2022/10/09 11:12:49;;;;;;;6.18;1.92;;;21.20;62.10;;;;;;4981352;28;20018;-79
2022/10/09 11:15:29;;;;;;;4.07;1.50;;;21.30;61.90;;;;;;4988839;28;20044;-78
2022/10/09 11:18:11;;;;;;;6.20;1.55;;;21.50;62.00;;;;;;4998365;28;20061;-78
2022/10/09 11:20:52;;;;;;;5.60;2.22;;;21.60;61.60;;;;;;4984258;28;20380;-77
2022/10/09 11:23:34;;;;;;;7.47;2.47;;;21.70;61.40;;;;;;4982822;28;20119;-76
2022/10/09 11:26:29;;;;;;;5.57;1.48;;;21.80;61.00;;;;;;4987712;28;20022;-77
2022/10/09 11:29:24;;;;;;;7.43;2.15;;;21.90;60.80;;;;;;4988227;28;20038;-77
2022/10/09 11:32:04;;;;;;;4.55;1.48;;;22.00;60.90;;;;;;4963165;28;20112;-76
2022/10/09 11:34:35;;;;;;;3.03;1.60;;;22.10;60.90;;;;;;4996694;28;20751;-75
2022/10/09 11:37:16;;;;;;;7.70;3.38;;;22.20;61.10;;;;;;4998885;28;20026;-75
2022/10/09 11:39:44;;;;;;;11.25;5.03;;;22.30;61.20;;;;;;4992859;28;20074;-75
2022/10/09 11:42:13;;;;;;;9.07;3.05;;;22.40;61.30;;;;;;4987452;28;20033;-77
2022/10/09 11:45:05;;;;;;;7.57;3.50;;;22.40;61.20;;;;;;4993579;28;20027;-80
2022/10/09 11:47:43;;;;;;;6.63;2.72;;;22.50;61.20;;;;;;4989473;28;20566;-81
2022/10/09 11:50:36;;;;;;;7.38;2.35;;;22.50;61.10;;;;;;4973390;28;20049;-82
2022/10/09 11:53:16;;;;;;;5.82;2.65;;;22.60;60.60;;;;;;4984066;28;20037;-74
2022/10/09 11:55:42;;;;;;;6.43;3.00;;;22.70;60.50;;;;;;4986190;28;20023;-76
2022/10/09 11:58:13;;;;;;;3.22;1.80;;;22.70;60.40;;;;;;4984612;28;20030;-80
2022/10/09 12:00:40;;;;;;;7.82;2.47;;;22.80;60.20;;;;;;4985964;28;20049;-75
2022/10/09 12:03:19;;;;;;;5.97;2.08;;;22.90;60.10;;;;;;4990349;28;20027;-75
2022/10/09 12:05:48;;;;;;;6.80;1.80;;;22.90;59.90;;;;;;4971339;28;20026;-79
2022/10/09 12:08:17;;;;;;;8.93;1.80;;;23.00;59.80;;;;;;4986338;28;20064;-77
2022/10/09 12:10:57;;;;;;;3.92;1.65;;;23.00;59.50;;;;;;4971638;28;20058;-76
2022/10/09 12:13:41;;;;;;;3.85;1.52;;;23.10;59.00;;;;;;4973469;28;20035;-78
2022/10/09 12:16:32;;;;;;;5.40;2.00;;;23.10;58.70;;;;;;4983621;28;20443;-74
2022/10/09 12:19:00;;;;;;;4.90;1.42;;;23.20;58.70;;;;;;4982837;28;20045;-80
2022/10/09 12:21:43;;;;;;;3.58;1.60;;;23.20;58.80;;;;;;4987052;28;20022;-75
2022/10/09 12:24:22;;;;;;;3.47;1.88;;;23.30;58.50;;;;;;4979130;28;20034;-75
2022/10/09 12:26:50;;;;;;;3.60;1.52;;;23.40;58.50;;;;;;4986668;28;20038;-74
2022/10/09 12:29:30;;;;;;;6.22;2.25;;;23.50;58.50;;;;;;4989537;28;20108;-76
2022/10/09 12:32:02;;;;;;;2.97;1.20;;;23.50;57.80;;;;;;4989251;28;20056;-75
2022/10/09 12:34:35;;;;;;;4.22;1.50;;;23.70;58.10;;;;;;4989742;28;20478;-76
2022/10/09 12:37:14;;;;;;;4.97;1.08;;;23.80;58.20;;;;;;4988826;28;20031;-75
2022/10/09 12:39:41;;;;;;;6.07;1.35;;;23.80;57.90;;;;;;4987885;28;20054;-75
2022/10/09 12:42:22;;;;;;;4.75;1.85;;;23.90;57.90;;;;;;4971943;28;20031;-74
2022/10/09 12:44:52;;;;;;;3.45;1.20;;;23.90;57.40;;;;;;4982304;28;20454;-75
2022/10/09 12:47:22;;;;;;;8.70;1.27;;;24.00;57.60;;;;;;4963441;28;20054;-75
2022/10/09 12:50:20;;;;;;;4.53;1.60;;;24.00;57.40;;;;;;4987466;28;20045;-75
2022/10/09 12:52:50;;;;;;;6.07;2.42;;;24.10;57.20;;;;;;4983628;28;20414;-75
2022/10/09 12:55:31;;;;;;;4.50;1.23;;;24.10;57.20;;;;;;4990732;28;20034;-75
2022/10/09 12:58:17;;;;;;;4.15;1.23;;;24.10;56.50;;;;;;4986839;28;20034;-76
2022/10/09 13:00:46;;;;;;;4.45;1.40;;;24.20;56.40;;;;;;4990928;28;20034;-75
2022/10/09 13:03:38;;;;;;;4.90;1.80;;;24.20;56.50;;;;;;4981174;28;20072;-75
2022/10/09 13:06:27;;;;;;;4.93;1.08;;;24.30;56.20;;;;;;4984928;28;20026;-75
2022/10/09 13:09:01;;;;;;;2.65;1.65;;;24.30;55.90;;;;;;4991038;28;20026;-76
2022/10/09 13:11:36;;;;;;;3.10;1.25;;;24.30;56.10;;;;;;4988913;28;20034;-75
2022/10/09 13:14:03;;;;;;;3.75;1.23;;;24.40;56.00;;;;;;4972196;28;20208;-75
2022/10/09 13:16:41;;;;;;;4.10;1.20;;;24.50;56.10;;;;;;4986951;28;20034;-75
2022/10/09 13:19:21;;;;;;;4.05;1.48;;;24.50;55.50;;;;;;4980376;28;20054;-74